createdAt,value
2019-06-26T00:00:11.354Z,26.40
2019-06-26T00:00:57.589Z,26.40
2019-06-26T00:01:45.011Z,26.30
2019-06-26T00:02:31.207Z,26.30
2019-06-26T00:03:17.015Z,26.30
2019-06-26T00:04:02.894Z,26.30
2019-06-26T00:04:49.256Z,26.20
2019-06-26T00:05:35.580Z,26.20
2019-06-26T00:06:21.429Z,26.20
2019-06-26T00:07:07.541Z,26.10
2019-06-26T00:07:53.810Z,26.20
2019-06-26T00:08:40.043Z,26.20
2019-06-26T00:09:26.124Z,26.20
2019-06-26T00:10:12.816Z,26.20
2019-06-26T00:10:58.854Z,26.10
2019-06-26T00:11:45.291Z,26.20
2019-06-26T00:12:31.092Z,26.10
2019-06-26T00:13:26.098Z,26.10
2019-06-26T00:14:06.072Z,26.10
2019-06-26T00:14:52.405Z,26.10
2019-06-26T00:15:38.660Z,26.10
2019-06-26T00:16:24.567Z,26.10
2019-06-26T00:17:10.470Z,26.10
2019-06-26T00:17:59.535Z,26.00
2019-06-26T00:18:45.956Z,26.00
2019-06-26T00:19:32.063Z,26.10
2019-06-26T00:20:18.621Z,26.10
2019-06-26T00:21:04.631Z,26.10
2019-06-26T00:21:50.711Z,26.00
2019-06-26T00:22:37.303Z,26.00
2019-06-26T00:23:23.610Z,26.00
2019-06-26T00:24:09.709Z,26.00
2019-06-26T00:24:55.778Z,26.00
2019-06-26T00:25:43.142Z,26.00
2019-06-26T00:26:29.422Z,25.90
2019-06-26T00:27:15.748Z,26.00
2019-06-26T00:28:01.569Z,25.90
2019-06-26T00:28:48.526Z,25.90
2019-06-26T00:29:34.799Z,25.90
2019-06-26T00:30:21.126Z,25.90
2019-06-26T00:31:07.474Z,25.90
2019-06-26T00:31:53.273Z,25.90
2019-06-26T00:32:39.285Z,25.90
2019-06-26T00:33:25.728Z,25.90
2019-06-26T00:34:11.985Z,25.90
2019-06-26T00:34:58.331Z,25.90
2019-06-26T00:35:45.382Z,25.90
2019-06-26T00:36:31.443Z,25.90
2019-06-26T00:37:18.918Z,25.90
2019-06-26T00:38:04.691Z,25.90
2019-06-26T00:38:51.728Z,25.80
2019-06-26T00:39:37.861Z,25.80
2019-06-26T00:40:24.127Z,25.80
2019-06-26T00:41:11.750Z,25.80
2019-06-26T00:41:58.066Z,25.80
2019-06-26T00:42:44.371Z,25.80
2019-06-26T00:43:41.933Z,25.80
2019-06-26T00:44:21.405Z,25.80
2019-06-26T00:45:08.259Z,25.80
2019-06-26T00:45:54.089Z,25.80
2019-06-26T00:46:40.023Z,25.70
2019-06-26T00:47:25.820Z,25.70
2019-06-26T00:48:11.650Z,25.70
2019-06-26T00:48:57.519Z,25.70
2019-06-26T00:49:43.675Z,25.70
2019-06-26T00:50:30.057Z,25.70
2019-06-26T00:51:16.081Z,25.70
2019-06-26T00:52:03.731Z,25.70
2019-06-26T00:52:50.066Z,25.70
2019-06-26T00:53:36.090Z,25.70
2019-06-26T00:54:22.676Z,25.70
2019-06-26T00:55:10.898Z,25.70
2019-06-26T00:55:57.129Z,25.60
2019-06-26T00:56:46.181Z,25.70
2019-06-26T00:57:32.224Z,25.60
2019-06-26T00:58:18.499Z,25.70
2019-06-26T00:59:04.820Z,25.60
2019-06-26T00:59:51.488Z,25.60
2019-06-26T01:00:43.438Z,25.60
2019-06-26T01:01:29.627Z,25.60
2019-06-26T01:02:15.763Z,25.60
2019-06-26T01:03:01.832Z,25.60
2019-06-26T01:03:50.025Z,25.60
2019-06-26T01:04:39.490Z,25.50
2019-06-26T01:05:25.776Z,25.50
2019-06-26T01:06:31.557Z,25.50
2019-06-26T01:07:17.873Z,25.50
2019-06-26T01:08:03.946Z,25.50
2019-06-26T01:08:50.258Z,25.50
2019-06-26T01:09:36.612Z,25.40
2019-06-26T01:10:23.167Z,25.40
2019-06-26T01:11:09.238Z,25.40
2019-06-26T01:11:55.515Z,25.50
2019-06-26T01:12:41.434Z,25.50
2019-06-26T01:13:28.503Z,25.40
2019-06-26T01:14:16.561Z,25.40
2019-06-26T01:15:03.411Z,25.40
2019-06-26T01:15:49.901Z,25.40
2019-06-26T01:16:37.231Z,25.40
2019-06-26T01:17:23.396Z,25.40
2019-06-26T01:18:09.815Z,25.40
2019-06-26T01:18:56.841Z,25.30
2019-06-26T01:19:43.058Z,25.30
2019-06-26T01:20:28.895Z,25.30
2019-06-26T01:21:16.039Z,25.30
2019-06-26T01:22:02.327Z,25.30
2019-06-26T01:22:48.217Z,25.30
2019-06-26T01:23:34.762Z,25.30
2019-06-26T01:24:22.359Z,25.30
2019-06-26T01:25:09.966Z,25.30
2019-06-26T01:26:00.356Z,25.30
2019-06-26T01:26:46.504Z,25.30
2019-06-26T01:27:32.466Z,25.30
2019-06-26T01:28:18.731Z,25.20
2019-06-26T01:29:04.834Z,25.30
2019-06-26T01:29:50.722Z,25.30
2019-06-26T01:30:36.644Z,25.20
2019-06-26T01:31:26.430Z,25.20
2019-06-26T01:32:12.608Z,25.20
2019-06-26T01:32:58.518Z,25.20
2019-06-26T01:33:44.979Z,25.10
2019-06-26T01:34:31.003Z,25.10
2019-06-26T01:35:18.419Z,25.20
2019-06-26T01:36:04.927Z,25.20
2019-06-26T01:36:52.480Z,25.10
2019-06-26T01:37:38.777Z,25.10
2019-06-26T01:38:24.823Z,25.10
2019-06-26T01:39:11.371Z,25.10
2019-06-26T01:39:57.680Z,25.10
2019-06-26T01:40:43.890Z,25.10
2019-06-26T01:41:30.923Z,25.10
2019-06-26T01:42:17.462Z,25.10
2019-06-26T01:43:05.691Z,25.10
2019-06-26T01:43:52.083Z,25.10
2019-06-26T01:44:38.583Z,25.10
2019-06-26T01:45:24.591Z,25.10
2019-06-26T01:46:10.658Z,25.10
2019-06-26T01:46:57.072Z,25.00
2019-06-26T01:47:43.349Z,25.00
2019-06-26T01:48:29.172Z,25.00
2019-06-26T01:49:15.050Z,25.00
2019-06-26T01:50:01.396Z,25.00
2019-06-26T01:50:47.907Z,25.00
2019-06-26T01:51:33.775Z,25.00
2019-06-26T01:52:19.746Z,25.00
2019-06-26T01:53:05.944Z,25.00
2019-06-26T01:53:52.372Z,24.90
2019-06-26T01:54:38.722Z,24.90
2019-06-26T01:55:24.997Z,24.90
2019-06-26T01:56:11.152Z,24.90
2019-06-26T01:56:57.315Z,24.90
2019-06-26T01:57:43.312Z,24.90
2019-06-26T01:58:29.135Z,24.90
2019-06-26T01:59:15.514Z,24.90
2019-06-26T02:00:01.863Z,24.90
2019-06-26T02:00:48.846Z,24.80
2019-06-26T02:01:35.383Z,24.80
2019-06-26T02:02:21.869Z,24.80
2019-06-26T02:03:08.451Z,24.80
2019-06-26T02:03:56.834Z,24.80
2019-06-26T02:04:43.043Z,24.80
2019-06-26T02:05:29.435Z,24.80
2019-06-26T02:06:15.941Z,24.80
2019-06-26T02:07:02.423Z,24.80
2019-06-26T02:07:48.599Z,24.70
2019-06-26T02:08:34.616Z,24.70
2019-06-26T02:09:20.866Z,24.70
2019-06-26T02:10:08.827Z,24.70
2019-06-26T02:10:54.794Z,24.70
2019-06-26T02:11:41.152Z,24.70
2019-06-26T02:12:28.011Z,24.70
2019-06-26T02:13:14.997Z,24.70
2019-06-26T02:14:01.245Z,24.70
2019-06-26T02:14:47.600Z,24.70
2019-06-26T02:15:33.868Z,24.70
2019-06-26T02:16:19.699Z,24.70
2019-06-26T02:17:05.530Z,24.70
2019-06-26T02:17:51.314Z,24.70
2019-06-26T02:18:50.302Z,24.60
2019-06-26T02:19:36.248Z,24.60
2019-06-26T02:20:22.140Z,24.60
2019-06-26T02:21:08.259Z,24.50
2019-06-26T02:21:56.844Z,24.50
2019-06-26T02:22:42.757Z,24.50
2019-06-26T02:23:31.987Z,24.50
2019-06-26T02:24:18.315Z,24.50
2019-06-26T02:25:05.167Z,24.50
2019-06-26T02:25:50.975Z,24.40
2019-06-26T02:26:37.015Z,24.40
2019-06-26T02:27:23.438Z,24.40
2019-06-26T02:28:09.816Z,24.40
2019-06-26T02:28:56.025Z,24.40
2019-06-26T02:29:42.362Z,24.40
2019-06-26T02:30:28.805Z,24.40
2019-06-26T02:31:15.877Z,24.40
2019-06-26T02:32:02.435Z,24.40
2019-06-26T02:32:51.662Z,24.40
2019-06-26T02:33:37.931Z,24.40
2019-06-26T02:34:24.093Z,24.40
2019-06-26T02:35:11.580Z,24.40
2019-06-26T02:35:57.631Z,24.40
2019-06-26T02:36:43.663Z,24.40
2019-06-26T02:37:29.476Z,24.30
2019-06-26T02:38:15.474Z,24.30
2019-06-26T02:39:01.229Z,24.30
2019-06-26T02:39:47.043Z,24.40
2019-06-26T02:40:33.353Z,24.30
2019-06-26T02:41:19.663Z,24.30
2019-06-26T02:42:05.624Z,24.30
2019-06-26T02:42:51.761Z,24.20
2019-06-26T02:43:37.709Z,24.20
2019-06-26T02:44:25.126Z,24.20
2019-06-26T02:45:12.148Z,24.10
2019-06-26T02:45:58.338Z,24.10
2019-06-26T02:46:44.734Z,24.00
2019-06-26T02:47:31.240Z,24.00
2019-06-26T02:48:17.587Z,24.00
2019-06-26T02:49:03.834Z,24.00
2019-06-26T02:49:49.814Z,24.00
2019-06-26T02:50:35.805Z,24.00
2019-06-26T02:51:23.335Z,24.00
2019-06-26T02:52:10.781Z,24.00
2019-06-26T02:52:57.108Z,24.00
2019-06-26T02:53:46.120Z,24.00
2019-06-26T02:54:32.359Z,24.00
2019-06-26T02:55:18.207Z,24.00
2019-06-26T02:56:05.803Z,24.00
2019-06-26T02:56:51.961Z,24.00
2019-06-26T02:57:38.163Z,23.90
2019-06-26T02:58:27.025Z,24.00
2019-06-26T02:59:14.352Z,23.90
2019-06-26T03:00:00.665Z,23.90
2019-06-26T03:00:46.738Z,23.90
2019-06-26T03:01:32.976Z,23.90
2019-06-26T03:02:19.431Z,23.90
2019-06-26T03:03:05.496Z,23.90
2019-06-26T03:03:51.828Z,23.90
2019-06-26T03:04:37.818Z,23.90
2019-06-26T03:05:23.759Z,23.80
2019-06-26T03:06:09.681Z,23.80
2019-06-26T03:06:55.763Z,23.80
2019-06-26T03:07:43.984Z,23.80
2019-06-26T03:08:30.179Z,23.80
2019-06-26T03:09:19.287Z,23.80
2019-06-26T03:10:05.681Z,23.80
2019-06-26T03:10:52.176Z,23.90
2019-06-26T03:11:38.268Z,23.90
2019-06-26T03:12:24.363Z,23.80
2019-06-26T03:13:10.359Z,23.80
2019-06-26T03:13:56.518Z,23.80
2019-06-26T03:14:43.025Z,23.80
2019-06-26T03:15:29.459Z,23.80
2019-06-26T03:16:15.513Z,23.80
2019-06-26T03:17:02.707Z,23.80
2019-06-26T03:17:55.349Z,23.80
2019-06-26T03:18:39.609Z,23.70
2019-06-26T03:19:25.976Z,23.70
2019-06-26T03:20:12.553Z,23.70
2019-06-26T03:20:59.134Z,23.70
2019-06-26T03:21:45.291Z,23.70
2019-06-26T03:22:31.456Z,23.80
2019-06-26T03:23:17.446Z,23.80
2019-06-26T03:24:03.465Z,23.80
2019-06-26T03:24:49.372Z,23.80
2019-06-26T03:25:35.191Z,23.80
2019-06-26T03:26:24.392Z,23.70
2019-06-26T03:27:10.542Z,23.70
2019-06-26T03:27:56.392Z,23.70
2019-06-26T03:28:42.791Z,23.70
2019-06-26T03:29:28.581Z,23.70
2019-06-26T03:30:16.304Z,23.70
2019-06-26T03:31:02.365Z,23.70
2019-06-26T03:31:48.220Z,23.70
2019-06-26T03:32:35.728Z,23.70
2019-06-26T03:33:22.111Z,23.70
2019-06-26T03:34:08.318Z,23.70
2019-06-26T03:34:54.219Z,23.70
2019-06-26T03:35:40.931Z,23.70
2019-06-26T03:36:27.120Z,23.70
2019-06-26T03:37:13.432Z,23.70
2019-06-26T03:37:59.352Z,23.70
2019-06-26T03:38:45.645Z,23.70
2019-06-26T03:39:31.462Z,23.70
2019-06-26T03:40:19.807Z,23.70
2019-06-26T03:41:06.378Z,23.70
2019-06-26T03:41:52.928Z,23.70
2019-06-26T03:42:38.770Z,23.70
2019-06-26T03:43:26.939Z,23.70
2019-06-26T03:44:13.182Z,23.70
2019-06-26T03:44:59.145Z,23.70
2019-06-26T03:45:47.212Z,23.60
2019-06-26T03:46:33.575Z,23.60
2019-06-26T03:47:19.708Z,23.60
2019-06-26T03:48:06.058Z,23.60
2019-06-26T03:48:52.232Z,23.70
2019-06-26T03:49:38.377Z,23.70
2019-06-26T03:50:25.978Z,23.60
2019-06-26T03:51:14.136Z,23.60
2019-06-26T03:52:00.384Z,23.60
2019-06-26T03:52:46.456Z,23.60
2019-06-26T03:53:33.107Z,23.70
2019-06-26T03:54:19.517Z,23.70
2019-06-26T03:55:06.308Z,23.70
2019-06-26T03:55:52.727Z,23.70
2019-06-26T03:56:39.070Z,23.70
2019-06-26T03:57:25.325Z,23.60
2019-06-26T03:58:11.292Z,23.60
2019-06-26T03:58:57.104Z,23.60
2019-06-26T03:59:43.038Z,23.60
2019-06-26T04:00:37.219Z,23.60
2019-06-26T04:01:23.195Z,23.70
2019-06-26T04:02:10.739Z,23.60
2019-06-26T04:02:57.232Z,23.70
2019-06-26T04:03:43.578Z,23.70
2019-06-26T04:04:29.596Z,23.70
2019-06-26T04:05:15.697Z,23.70
2019-06-26T04:06:01.997Z,23.60
2019-06-26T04:06:50.045Z,23.60
2019-06-26T04:07:36.107Z,23.60
2019-06-26T04:08:22.555Z,23.70
2019-06-26T04:09:09.003Z,23.70
2019-06-26T04:09:55.036Z,23.70
2019-06-26T04:10:43.423Z,23.70
2019-06-26T04:11:30.497Z,23.60
2019-06-26T04:12:17.176Z,23.60
2019-06-26T04:13:04.039Z,23.60
2019-06-26T04:13:50.347Z,23.60
2019-06-26T04:14:36.416Z,23.60
2019-06-26T04:15:22.906Z,23.60
2019-06-26T04:16:10.248Z,23.60
2019-06-26T04:16:56.848Z,23.60
2019-06-26T04:17:43.236Z,23.60
2019-06-26T04:18:29.040Z,23.60
2019-06-26T04:19:15.900Z,23.60
2019-06-26T04:20:03.487Z,23.60
2019-06-26T04:20:49.932Z,23.60
2019-06-26T04:21:36.305Z,23.60
2019-06-26T04:22:24.043Z,23.60
2019-06-26T04:23:10.285Z,23.60
2019-06-26T04:23:56.480Z,23.60
2019-06-26T04:24:43.349Z,23.70
2019-06-26T04:25:29.742Z,23.70
2019-06-26T04:26:15.587Z,23.70
2019-06-26T04:27:01.845Z,23.70
2019-06-26T04:27:47.633Z,23.70
2019-06-26T04:28:34.591Z,23.70
2019-06-26T04:29:21.914Z,23.60
2019-06-26T04:30:10.572Z,23.60
2019-06-26T04:30:57.607Z,23.60
2019-06-26T04:31:44.109Z,23.70
2019-06-26T04:32:30.654Z,23.60
2019-06-26T04:33:16.575Z,23.60
2019-06-26T04:34:02.539Z,23.70
2019-06-26T04:34:48.728Z,23.70
2019-06-26T04:35:35.863Z,23.60
2019-06-26T04:36:22.149Z,23.70
2019-06-26T04:37:08.534Z,23.70
2019-06-26T04:37:54.601Z,23.60
2019-06-26T04:38:40.558Z,23.60
2019-06-26T04:39:26.830Z,23.70
2019-06-26T04:40:14.071Z,23.60
2019-06-26T04:40:59.760Z,23.70
2019-06-26T04:41:45.890Z,23.70
2019-06-26T04:42:32.238Z,23.70
2019-06-26T04:43:18.716Z,23.70
2019-06-26T04:44:04.943Z,23.60
2019-06-26T04:44:52.207Z,23.60
2019-06-26T04:45:38.747Z,23.60
2019-06-26T04:46:24.687Z,23.70
2019-06-26T04:47:11.133Z,23.70
2019-06-26T04:47:57.767Z,23.60
2019-06-26T04:48:44.067Z,23.70
2019-06-26T04:49:30.297Z,23.70
2019-06-26T04:50:17.126Z,23.70
2019-06-26T04:51:03.378Z,23.70
2019-06-26T04:51:49.639Z,23.70
2019-06-26T04:52:35.646Z,23.70
2019-06-26T04:53:21.502Z,23.80
2019-06-26T04:54:07.567Z,23.80
2019-06-26T04:54:53.721Z,23.80
2019-06-26T04:55:39.511Z,23.80
2019-06-26T04:56:25.905Z,23.90
2019-06-26T04:57:13.374Z,24.00
2019-06-26T04:57:59.767Z,24.00
2019-06-26T04:58:45.928Z,23.90
2019-06-26T04:59:32.329Z,23.90
2019-06-26T05:00:21.739Z,23.80
2019-06-26T05:01:08.800Z,23.80
2019-06-26T05:01:54.808Z,24.00
2019-06-26T05:02:41.085Z,24.10
2019-06-26T05:03:27.299Z,24.10
2019-06-26T05:04:13.197Z,24.10
2019-06-26T05:04:59.722Z,24.10
2019-06-26T05:05:46.186Z,24.10
2019-06-26T05:06:32.437Z,24.10
2019-06-26T05:07:18.846Z,24.10
2019-06-26T05:08:04.868Z,24.20
2019-06-26T05:08:51.227Z,24.30
2019-06-26T05:09:37.022Z,24.50
2019-06-26T05:10:23.443Z,24.60
2019-06-26T05:11:12.607Z,24.60
2019-06-26T05:11:58.146Z,24.70
2019-06-26T05:12:44.529Z,24.70
2019-06-26T05:13:30.848Z,24.80
2019-06-26T05:14:17.352Z,24.80
2019-06-26T05:15:04.504Z,24.80
2019-06-26T05:15:50.836Z,24.80
2019-06-26T05:16:37.415Z,24.90
2019-06-26T05:17:24.297Z,24.90
2019-06-26T05:18:10.713Z,24.90
2019-06-26T05:18:56.917Z,24.90
2019-06-26T05:19:43.422Z,24.90
2019-06-26T05:20:31.461Z,24.90
2019-06-26T05:21:17.765Z,24.80
2019-06-26T05:22:04.156Z,24.70
2019-06-26T05:22:50.454Z,24.80
2019-06-26T05:23:36.807Z,24.80
2019-06-26T05:24:23.166Z,24.90
2019-06-26T05:25:10.332Z,24.90
2019-06-26T05:25:58.427Z,25.00
2019-06-26T05:26:44.765Z,24.90
2019-06-26T05:27:30.932Z,25.00
2019-06-26T05:28:18.104Z,25.10
2019-06-26T05:29:04.404Z,25.30
2019-06-26T05:29:54.224Z,25.50
2019-06-26T05:30:38.871Z,25.60
2019-06-26T05:31:25.280Z,25.60
2019-06-26T05:32:11.367Z,25.60
2019-06-26T05:32:57.378Z,25.50
2019-06-26T05:33:45.290Z,25.30
2019-06-26T05:34:32.744Z,25.20
2019-06-26T05:35:19.145Z,25.20
2019-06-26T05:36:05.573Z,25.30
2019-06-26T05:36:52.020Z,25.30
2019-06-26T05:37:40.201Z,25.30
2019-06-26T05:38:27.677Z,25.40
2019-06-26T05:39:13.966Z,25.30
2019-06-26T05:40:01.301Z,25.30
2019-06-26T05:40:47.762Z,25.40
2019-06-26T05:41:33.903Z,25.50
2019-06-26T05:42:19.705Z,25.60
2019-06-26T05:43:05.589Z,25.50
2019-06-26T05:43:51.786Z,25.60
2019-06-26T05:44:38.193Z,25.50
2019-06-26T05:45:24.395Z,25.60
2019-06-26T05:46:10.928Z,25.60
2019-06-26T05:46:57.023Z,25.60
2019-06-26T05:47:43.021Z,25.50
2019-06-26T05:48:29.900Z,25.50
2019-06-26T05:49:16.283Z,25.50
2019-06-26T05:50:03.453Z,25.50
2019-06-26T05:50:49.346Z,25.40
2019-06-26T05:51:35.614Z,25.40
2019-06-26T05:52:21.598Z,25.40
2019-06-26T05:53:09.184Z,25.40
2019-06-26T05:53:55.340Z,25.40
2019-06-26T05:54:43.615Z,25.40
2019-06-26T05:55:30.035Z,25.40
2019-06-26T05:56:16.115Z,25.40
2019-06-26T05:57:02.316Z,25.40
2019-06-26T05:57:48.687Z,25.30
2019-06-26T05:58:36.694Z,25.40
2019-06-26T05:59:22.629Z,25.30
2019-06-26T06:00:09.648Z,25.30
2019-06-26T06:00:57.080Z,25.40
2019-06-26T06:01:43.255Z,25.40
2019-06-26T06:02:29.460Z,25.40
2019-06-26T06:03:16.870Z,25.50
2019-06-26T06:04:03.056Z,25.50
2019-06-26T06:04:49.309Z,25.50
2019-06-26T06:05:35.666Z,25.60
2019-06-26T06:06:21.844Z,25.60
2019-06-26T06:07:08.132Z,25.50
2019-06-26T06:07:54.248Z,25.40
2019-06-26T06:08:40.727Z,25.40
2019-06-26T06:09:26.878Z,25.40
2019-06-26T06:10:14.448Z,25.40
2019-06-26T06:11:01.779Z,25.50
2019-06-26T06:11:48.005Z,25.40
2019-06-26T06:12:34.426Z,25.50
2019-06-26T06:13:20.603Z,25.60
2019-06-26T06:14:06.739Z,25.70
2019-06-26T06:14:52.660Z,25.70
2019-06-26T06:15:38.460Z,25.70
2019-06-26T06:16:25.806Z,25.70
2019-06-26T06:17:12.095Z,25.80
2019-06-26T06:17:58.679Z,25.80
2019-06-26T06:18:44.820Z,25.90
2019-06-26T06:19:30.793Z,25.90
2019-06-26T06:20:24.599Z,25.90
2019-06-26T06:21:10.823Z,25.90
2019-06-26T06:21:57.351Z,26.00
2019-06-26T06:22:43.861Z,26.00
2019-06-26T06:23:30.412Z,26.20
2019-06-26T06:24:16.423Z,26.40
2019-06-26T06:25:04.287Z,26.70
2019-06-26T06:25:51.725Z,27.00
2019-06-26T06:26:38.313Z,27.20
2019-06-26T06:27:24.604Z,27.20
2019-06-26T06:28:11.256Z,27.10
2019-06-26T06:28:57.468Z,27.00
2019-06-26T06:29:43.809Z,26.90
2019-06-26T06:30:31.082Z,26.70
2019-06-26T06:31:17.216Z,26.60
2019-06-26T06:32:03.065Z,26.70
2019-06-26T06:32:48.942Z,26.70
2019-06-26T06:33:35.175Z,26.80
2019-06-26T06:34:21.005Z,26.80
2019-06-26T06:35:07.173Z,26.90
2019-06-26T06:35:53.279Z,26.90
2019-06-26T06:36:40.260Z,26.90
2019-06-26T06:37:26.463Z,27.00
2019-06-26T06:38:12.292Z,27.10
2019-06-26T06:38:58.196Z,27.10
2019-06-26T06:39:44.054Z,27.20
2019-06-26T06:40:30.458Z,27.20
2019-06-26T06:41:18.717Z,27.30
2019-06-26T06:42:04.860Z,27.30
2019-06-26T06:42:52.958Z,27.50
2019-06-26T06:43:39.149Z,27.60
2019-06-26T06:44:25.042Z,27.90
2019-06-26T06:45:13.130Z,28.50
2019-06-26T06:45:59.299Z,29.40
2019-06-26T06:46:45.279Z,30.30
2019-06-26T06:47:31.216Z,31.20
2019-06-26T06:48:17.140Z,31.90
2019-06-26T06:49:03.132Z,32.40
2019-06-26T06:49:51.079Z,32.70
2019-06-26T06:50:37.664Z,32.90
2019-06-26T06:51:24.062Z,33.00
2019-06-26T06:52:10.036Z,33.20
2019-06-26T06:52:56.412Z,33.50
2019-06-26T06:53:42.327Z,33.60
2019-06-26T06:54:28.575Z,34.00
2019-06-26T06:55:15.993Z,34.20
2019-06-26T06:56:02.253Z,34.30
2019-06-26T06:56:48.552Z,34.40
2019-06-26T06:57:35.606Z,34.20
2019-06-26T06:58:21.715Z,34.60
2019-06-26T06:59:09.074Z,35.10
2019-06-26T06:59:57.422Z,35.30
2019-06-26T07:00:43.863Z,35.50
2019-06-26T07:01:31.163Z,35.60
2019-06-26T07:02:18.534Z,35.10
2019-06-26T07:03:05.169Z,35.30
2019-06-26T07:03:51.804Z,35.60
2019-06-26T07:04:37.938Z,35.60
2019-06-26T07:05:25.380Z,35.70
2019-06-26T07:06:11.232Z,36.10
2019-06-26T07:06:58.797Z,36.20
2019-06-26T07:07:45.055Z,35.90
2019-06-26T07:08:31.264Z,35.90
2019-06-26T07:09:17.220Z,35.20
2019-06-26T07:10:03.316Z,35.00
2019-06-26T07:10:49.816Z,35.00
2019-06-26T07:11:36.206Z,35.10
2019-06-26T07:12:22.162Z,35.50
2019-06-26T07:13:08.413Z,36.20
2019-06-26T07:13:54.542Z,36.60
2019-06-26T07:14:41.045Z,36.90
2019-06-26T07:15:27.216Z,37.00
2019-06-26T07:16:13.537Z,37.10
2019-06-26T07:17:01.489Z,37.10
2019-06-26T07:17:48.162Z,37.30
2019-06-26T07:18:36.281Z,37.60
2019-06-26T07:19:22.500Z,37.90
2019-06-26T07:20:10.041Z,38.00
2019-06-26T07:20:57.217Z,37.90
2019-06-26T07:21:45.546Z,37.90
2019-06-26T07:22:31.728Z,38.00
2019-06-26T07:23:17.529Z,38.20
2019-06-26T07:24:03.443Z,38.50
2019-06-26T07:24:49.925Z,38.60
2019-06-26T07:25:36.135Z,38.40
2019-06-26T07:26:21.899Z,38.40
2019-06-26T07:27:07.682Z,38.50
2019-06-26T07:27:54.222Z,38.50
2019-06-26T07:28:40.106Z,38.40
2019-06-26T07:29:26.056Z,38.60
2019-06-26T07:30:14.440Z,39.00
2019-06-26T07:31:01.731Z,39.10
2019-06-26T07:31:49.379Z,39.30
2019-06-26T07:32:36.833Z,39.40
2019-06-26T07:33:23.067Z,39.10
2019-06-26T07:34:10.153Z,39.20
2019-06-26T07:34:57.643Z,39.00
2019-06-26T07:35:43.823Z,39.00
2019-06-26T07:36:29.613Z,39.10
2019-06-26T07:37:15.497Z,39.20
2019-06-26T07:38:01.439Z,39.40
2019-06-26T07:38:47.581Z,39.50
2019-06-26T07:39:34.210Z,39.70
2019-06-26T07:40:20.466Z,39.90
2019-06-26T07:41:07.947Z,39.80
2019-06-26T07:41:54.187Z,39.90
2019-06-26T07:42:41.297Z,39.40
2019-06-26T07:43:27.296Z,39.30
2019-06-26T07:44:13.288Z,39.40
2019-06-26T07:44:59.186Z,39.70
2019-06-26T07:45:45.543Z,39.70
2019-06-26T07:46:31.463Z,39.10
2019-06-26T07:47:22.838Z,39.00
2019-06-26T07:48:05.987Z,39.30
2019-06-26T07:48:52.336Z,39.40
2019-06-26T07:49:38.598Z,39.90
2019-06-26T07:50:25.011Z,40.30
2019-06-26T07:51:11.111Z,40.60
2019-06-26T07:51:57.213Z,40.70
2019-06-26T07:52:43.557Z,40.60
2019-06-26T07:53:29.413Z,40.90
2019-06-26T07:54:15.872Z,40.90
2019-06-26T07:55:02.348Z,40.90
2019-06-26T07:55:48.607Z,40.80
2019-06-26T07:56:34.953Z,40.80
2019-06-26T07:57:22.192Z,40.80
2019-06-26T07:58:08.291Z,41.10
2019-06-26T07:58:56.011Z,41.20
2019-06-26T07:59:42.232Z,41.30
2019-06-26T08:00:31.545Z,41.30
2019-06-26T08:01:16.119Z,41.50
2019-06-26T08:02:01.990Z,41.60
2019-06-26T08:02:48.380Z,41.50
2019-06-26T08:03:34.916Z,41.50
2019-06-26T08:04:22.411Z,41.50
2019-06-26T08:05:09.122Z,41.40
2019-06-26T08:05:58.038Z,41.30
2019-06-26T08:06:43.947Z,41.40
2019-06-26T08:07:30.247Z,41.30
2019-06-26T08:08:16.691Z,41.40
2019-06-26T08:09:04.044Z,41.30
2019-06-26T08:09:51.378Z,41.10
2019-06-26T08:10:37.443Z,41.20
2019-06-26T08:11:25.008Z,41.40
2019-06-26T08:12:11.526Z,41.70
2019-06-26T08:12:57.383Z,41.70
2019-06-26T08:13:44.771Z,41.80
2019-06-26T08:14:32.167Z,41.80
2019-06-26T08:15:18.059Z,41.60
2019-06-26T08:16:04.333Z,41.60
2019-06-26T08:16:52.418Z,41.80
2019-06-26T08:17:38.788Z,41.80
2019-06-26T08:18:25.260Z,41.80
2019-06-26T08:19:11.193Z,42.10
2019-06-26T08:19:57.592Z,42.40
2019-06-26T08:21:00.310Z,42.50
2019-06-26T08:21:32.344Z,42.50
2019-06-26T08:22:19.095Z,42.60
2019-06-26T08:23:05.140Z,42.60
2019-06-26T08:23:51.092Z,42.00
2019-06-26T08:24:37.688Z,42.00
2019-06-26T08:25:24.252Z,42.40
2019-06-26T08:26:10.825Z,42.80
2019-06-26T08:26:57.396Z,43.00
2019-06-26T08:27:43.709Z,43.30
2019-06-26T08:28:30.204Z,43.30
2019-06-26T08:29:16.579Z,43.30
2019-06-26T08:30:03.801Z,43.20
2019-06-26T08:30:49.940Z,43.20
2019-06-26T08:31:35.831Z,43.20
2019-06-26T08:32:25.834Z,42.90
2019-06-26T08:33:09.853Z,42.80
2019-06-26T08:33:55.723Z,42.90
2019-06-26T08:34:41.570Z,43.00
2019-06-26T08:35:27.895Z,43.00
2019-06-26T08:36:13.785Z,43.00
2019-06-26T08:36:59.801Z,43.00
2019-06-26T08:37:46.075Z,43.10
2019-06-26T08:38:31.932Z,43.10
2019-06-26T08:39:17.792Z,43.30
2019-06-26T08:40:04.857Z,42.70
2019-06-26T08:40:52.153Z,42.30
2019-06-26T08:41:38.404Z,42.00
2019-06-26T08:42:25.800Z,42.60
2019-06-26T08:43:12.068Z,43.00
2019-06-26T08:43:58.405Z,43.40
2019-06-26T08:44:44.831Z,43.50
2019-06-26T08:45:31.248Z,43.80
2019-06-26T08:46:17.757Z,42.70
2019-06-26T08:47:03.808Z,41.30
2019-06-26T08:47:49.725Z,42.00
2019-06-26T08:48:39.917Z,42.40
2019-06-26T08:49:26.019Z,42.70
2019-06-26T08:50:31.080Z,42.70
2019-06-26T08:51:17.348Z,41.10
2019-06-26T08:52:04.384Z,40.00
2019-06-26T08:52:50.504Z,40.50
2019-06-26T08:53:37.416Z,41.40
2019-06-26T08:54:23.952Z,42.00
2019-06-26T08:55:10.764Z,42.50
2019-06-26T08:55:57.142Z,42.80
2019-06-26T08:56:43.723Z,42.90
2019-06-26T08:57:29.865Z,43.00
2019-06-26T08:58:16.295Z,43.20
2019-06-26T08:59:02.160Z,43.30
2019-06-26T08:59:48.173Z,43.40
2019-06-26T09:00:36.431Z,43.50
2019-06-26T09:01:22.578Z,43.80
2019-06-26T09:02:09.043Z,43.30
2019-06-26T09:02:55.060Z,42.90
2019-06-26T09:03:42.189Z,43.10
2019-06-26T09:04:29.556Z,43.10
2019-06-26T09:05:16.788Z,43.60
2019-06-26T09:06:03.213Z,43.80
2019-06-26T09:06:50.939Z,43.60
2019-06-26T09:07:37.168Z,43.80
2019-06-26T09:08:24.162Z,43.90
2019-06-26T09:09:10.664Z,44.00
2019-06-26T09:09:56.872Z,43.90
2019-06-26T09:10:45.018Z,43.80
2019-06-26T09:11:31.624Z,43.80
2019-06-26T09:12:17.652Z,43.90
2019-06-26T09:13:05.227Z,43.90
2019-06-26T09:13:51.291Z,44.10
2019-06-26T09:14:37.847Z,44.10
2019-06-26T09:15:24.388Z,44.10
2019-06-26T09:16:12.331Z,44.10
2019-06-26T09:17:00.339Z,44.10
2019-06-26T09:17:46.379Z,44.20
2019-06-26T09:18:35.833Z,44.00
2019-06-26T09:19:21.505Z,43.90
2019-06-26T09:20:08.862Z,43.80
2019-06-26T09:20:56.737Z,44.10
2019-06-26T09:21:43.137Z,44.10
2019-06-26T09:22:31.055Z,44.20
2019-06-26T09:23:17.369Z,44.30
2019-06-26T09:24:05.286Z,44.20
2019-06-26T09:24:51.454Z,44.40
2019-06-26T09:25:37.676Z,44.40
2019-06-26T09:26:23.761Z,44.00
2019-06-26T09:27:13.810Z,44.00
2019-06-26T09:27:59.855Z,44.20
2019-06-26T09:28:45.946Z,43.70
2019-06-26T09:29:32.795Z,43.10
2019-06-26T09:30:25.802Z,42.10
2019-06-26T09:31:12.080Z,42.00
2019-06-26T09:31:58.147Z,42.00
2019-06-26T09:32:44.198Z,42.30
2019-06-26T09:33:32.396Z,42.70
2019-06-26T09:34:19.598Z,43.20
2019-06-26T09:35:06.639Z,43.50
2019-06-26T09:35:53.507Z,43.80
2019-06-26T09:36:41.580Z,44.10
2019-06-26T09:37:27.439Z,44.20
2019-06-26T09:38:14.439Z,44.20
2019-06-26T09:39:20.135Z,44.20
2019-06-26T09:40:07.465Z,44.00
2019-06-26T09:40:53.778Z,44.20
2019-06-26T09:41:39.787Z,44.60
2019-06-26T09:42:25.711Z,44.60
2019-06-26T09:43:12.992Z,44.70
2019-06-26T09:43:59.683Z,44.70
2019-06-26T09:44:47.637Z,44.80
2019-06-26T09:45:34.669Z,45.10
2019-06-26T09:46:21.309Z,45.00
2019-06-26T09:47:07.520Z,45.10
2019-06-26T09:47:53.727Z,45.00
2019-06-26T09:48:52.110Z,44.90
2019-06-26T09:49:29.410Z,45.10
2019-06-26T09:50:16.933Z,44.70
2019-06-26T09:51:03.301Z,44.60
2019-06-26T09:51:49.365Z,44.30
2019-06-26T09:52:35.589Z,44.20
2019-06-26T09:53:22.943Z,44.10
2019-06-26T09:54:09.764Z,43.90
2019-06-26T09:54:56.913Z,43.90
2019-06-26T09:55:43.842Z,44.20
2019-06-26T09:56:30.338Z,44.10
2019-06-26T09:57:16.901Z,44.10
2019-06-26T09:58:03.094Z,44.20
2019-06-26T09:58:49.976Z,44.40
2019-06-26T09:59:36.465Z,44.20
2019-06-26T10:00:24.161Z,44.20
2019-06-26T10:01:10.218Z,44.40